HRYR/KGL METAR and TAF weather

Enter ICAO airport designator
Station Type Date Time Source
HRYR METAR 2020/01/22 12:00 UTC NOAA

HRYR 221200Z 07004KT 9999 SCT025 29/15 Q1016 NOSIG


Station Type Date Time Source
HRYR Decoded METAR 2020/01/22 12:00 UTC NOAA

Kigali, Rwanda (HRYR) 01-58S 030-07E 1497M
Jan 22, 2020 - 07:00 AM EST / 2020.01.22 1200 UTC
Wind: from the ENE (070 degrees) at 5 MPH (4 KT):0
Visibility: greater than 7 mile(s):0
Sky conditions: partly cloudy
Temperature: 84 F (29 C)
Dew Point: 59 F (15 C)
Relative Humidity: 42%
Pressure (altimeter): 30.00 in. Hg (1016 hPa)
ob: HRYR 221200Z 07004KT 9999 SCT025 29/15 Q1016 NOSIG
cycle: 12

Station Type Date Time Source
HRYR TAF 2020/01/22 12:54 UTC NOAA

TAF HRYR 221100Z 2212/2318 12012KT 9999 SCT025 SCT100
BECMG 2218/2221 30005KT
BECMG 2303/2306 00000KT 3000 FEW020 FM 230800 14006KT 9999 BKN025
TEMPO 2312/2316 24012KT TS FEW020CB BKN025

Example: see airport list